createdAt,value
2018-04-24T00:01:04.990Z,63.30
2018-04-24T00:03:32.832Z,62.60
2018-04-24T00:05:59.881Z,62.60
2018-04-24T00:08:26.863Z,62.60
2018-04-24T00:10:54.626Z,62.70
2018-04-24T00:13:22.377Z,62.60
2018-04-24T00:15:50.143Z,62.60
2018-04-24T00:18:17.914Z,62.70
2018-04-24T00:20:45.661Z,62.70
2018-04-24T00:23:13.417Z,62.70
2018-04-24T00:25:40.426Z,62.70
2018-04-24T00:28:07.418Z,62.60
2018-04-24T00:30:35.257Z,62.70
2018-04-24T00:33:02.310Z,62.70
2018-04-24T00:35:29.298Z,62.70
2018-04-24T00:37:56.288Z,62.70
2018-04-24T00:40:23.346Z,62.70
2018-04-24T00:42:50.329Z,62.70
2018-04-24T00:45:18.149Z,62.70
2018-04-24T00:47:45.142Z,62.70
2018-04-24T00:50:12.966Z,62.70
2018-04-24T00:52:39.954Z,62.70
2018-04-24T00:55:06.961Z,62.80
2018-04-24T00:57:34.006Z,62.80
2018-04-24T01:00:01.049Z,62.80
2018-04-24T01:02:28.099Z,62.80
2018-04-24T01:04:55.098Z,62.70
2018-04-24T01:07:22.185Z,62.80
2018-04-24T01:09:49.171Z,62.80
2018-04-24T01:12:16.925Z,62.80
2018-04-24T01:14:44.767Z,62.80
2018-04-24T01:17:11.823Z,62.80
2018-04-24T01:19:38.802Z,62.90
2018-04-24T01:22:05.797Z,62.80
2018-04-24T01:24:32.853Z,62.90
2018-04-24T01:26:59.848Z,62.90
2018-04-24T01:29:26.841Z,62.90
2018-04-24T01:31:53.837Z,62.90
2018-04-24T01:34:20.930Z,62.90
2018-04-24T01:36:47.921Z,62.90
2018-04-24T01:39:15.749Z,63.00
2018-04-24T01:41:42.794Z,63.00
2018-04-24T01:44:09.781Z,63.00
2018-04-24T01:46:36.770Z,63.00
2018-04-24T01:49:03.834Z,62.90
2018-04-24T01:51:30.842Z,63.00
2018-04-24T01:53:57.833Z,62.90
2018-04-24T01:56:24.820Z,63.00
2018-04-24T01:58:51.809Z,63.00
2018-04-24T02:01:18.806Z,63.00
2018-04-24T02:03:45.806Z,63.00
2018-04-24T02:06:12.789Z,63.10
2018-04-24T02:08:40.566Z,63.10
2018-04-24T02:11:07.558Z,63.00
2018-04-24T02:13:34.559Z,63.00
2018-04-24T02:16:01.655Z,63.20
2018-04-24T02:18:28.641Z,63.10
2018-04-24T02:20:55.634Z,63.10
2018-04-24T02:23:22.621Z,63.10
2018-04-24T02:25:50.449Z,63.10
2018-04-24T02:28:17.441Z,63.10
2018-04-24T02:30:45.242Z,63.10
2018-04-24T02:33:12.306Z,63.10
2018-04-24T02:35:39.288Z,63.10
2018-04-24T02:38:07.119Z,63.10
2018-04-24T02:40:34.116Z,63.10
2018-04-24T02:43:01.103Z,63.10
2018-04-24T02:45:28.154Z,63.10
2018-04-24T02:47:55.246Z,63.10
2018-04-24T02:50:22.194Z,63.10
2018-04-24T02:52:49.190Z,63.10
2018-04-24T02:55:16.185Z,63.10
2018-04-24T02:57:43.935Z,63.10
2018-04-24T03:00:11.769Z,63.10
2018-04-24T03:02:38.761Z,63.10
2018-04-24T03:05:05.749Z,63.10
2018-04-24T03:07:32.742Z,63.10
2018-04-24T03:10:00.505Z,63.20
2018-04-24T03:12:28.258Z,63.10
2018-04-24T03:14:56.033Z,63.10
2018-04-24T03:17:23.788Z,63.10
2018-04-24T03:19:50.772Z,63.10
2018-04-24T03:22:17.893Z,63.00
2018-04-24T03:24:45.646Z,63.10
2018-04-24T03:27:13.401Z,63.10
2018-04-24T03:29:41.161Z,63.90
2018-04-24T03:32:08.169Z,63.00
2018-04-24T03:34:35.177Z,63.10
2018-04-24T03:37:03.020Z,63.10
2018-04-24T03:39:30.010Z,63.10
2018-04-24T03:41:57.012Z,63.10
2018-04-24T03:44:24.101Z,63.20
2018-04-24T03:46:51.105Z,63.20
2018-04-24T03:49:18.117Z,63.20
2018-04-24T03:51:45.109Z,63.60
2018-04-24T03:54:12.866Z,63.30
2018-04-24T03:56:39.878Z,63.20
2018-04-24T03:59:06.875Z,64.10
2018-04-24T04:01:34.717Z,63.20
2018-04-24T04:04:01.711Z,63.10
2018-04-24T04:06:28.710Z,63.20
2018-04-24T04:08:55.749Z,63.30
2018-04-24T04:11:22.742Z,63.10
2018-04-24T04:13:49.774Z,63.20
2018-04-24T04:16:16.742Z,63.20
2018-04-24T04:18:49.761Z,63.30
2018-04-24T04:21:22.829Z,63.20
2018-04-24T04:23:55.836Z,63.20
2018-04-24T04:26:22.823Z,63.20
2018-04-24T04:28:49.821Z,63.20
2018-04-24T04:31:16.817Z,63.30
2018-04-24T04:33:43.817Z,63.30
2018-04-24T04:36:10.874Z,63.30
2018-04-24T04:38:37.880Z,64.00
2018-04-24T04:41:04.957Z,63.30
2018-04-24T04:43:32.006Z,63.30
2018-04-24T04:45:59.058Z,63.30
2018-04-24T04:48:26.920Z,62.80
2018-04-24T04:50:53.971Z,63.30
2018-04-24T04:53:20.960Z,63.30
2018-04-24T04:55:47.953Z,63.30
2018-04-24T04:58:15.008Z,63.30
2018-04-24T05:00:41.996Z,63.30
2018-04-24T05:03:08.993Z,63.30
2018-04-24T05:05:35.982Z,63.30
2018-04-24T05:08:03.740Z,63.30
2018-04-24T05:10:31.561Z,63.30
2018-04-24T05:12:58.575Z,63.30
2018-04-24T05:15:25.573Z,63.00
2018-04-24T05:17:52.567Z,63.00
2018-04-24T05:20:19.645Z,63.40
2018-04-24T05:22:46.643Z,63.40
2018-04-24T05:25:14.397Z,63.40
2018-04-24T05:27:42.155Z,63.60
2018-04-24T05:30:09.914Z,63.60
2018-04-24T05:32:37.669Z,64.40
2018-04-24T05:35:04.664Z,63.50
2018-04-24T05:37:31.653Z,63.60
2018-04-24T05:39:58.637Z,63.70
2018-04-24T05:42:25.634Z,63.70
2018-04-24T05:44:52.636Z,63.70
2018-04-24T05:47:19.627Z,63.60
2018-04-24T05:49:46.612Z,63.70
2018-04-24T05:52:14.479Z,63.70
2018-04-24T05:54:41.423Z,63.50
2018-04-24T05:57:09.173Z,63.70
2018-04-24T05:59:36.950Z,63.60
2018-04-24T06:02:04.714Z,63.70
2018-04-24T06:04:32.535Z,63.70
2018-04-24T06:06:59.589Z,63.70
2018-04-24T06:09:26.631Z,63.50
2018-04-24T06:11:53.685Z,63.50
2018-04-24T06:14:20.671Z,63.50
2018-04-24T06:16:47.666Z,63.50
2018-04-24T06:19:14.659Z,63.50
2018-04-24T06:21:41.648Z,63.50
2018-04-24T06:24:08.709Z,63.50
2018-04-24T06:26:35.705Z,63.50
2018-04-24T06:29:02.718Z,63.50
2018-04-24T06:31:29.706Z,63.50
2018-04-24T06:33:56.712Z,63.50
2018-04-24T06:36:23.704Z,63.50
2018-04-24T06:38:50.701Z,64.30
2018-04-24T06:41:17.694Z,63.50
2018-04-24T06:43:44.692Z,63.90
2018-04-24T06:46:11.681Z,63.50
2018-04-24T06:48:38.678Z,63.40
2018-04-24T06:51:05.700Z,63.40
2018-04-24T06:53:32.680Z,63.40
2018-04-24T06:56:00.442Z,63.40
2018-04-24T06:58:27.433Z,63.40
2018-04-24T07:00:54.455Z,63.40
2018-04-24T07:03:21.416Z,63.40
2018-04-24T07:05:48.498Z,63.40
2018-04-24T07:08:15.548Z,63.40
2018-04-24T07:10:42.543Z,63.40
2018-04-24T07:13:09.550Z,63.40
2018-04-24T07:15:36.551Z,63.40
2018-04-24T07:18:03.547Z,63.40
2018-04-24T07:20:30.542Z,63.40
2018-04-24T07:22:57.533Z,63.40
2018-04-24T07:25:24.527Z,63.40
2018-04-24T07:27:51.537Z,63.40
2018-04-24T07:30:19.281Z,63.40
2018-04-24T07:32:46.275Z,63.30
2018-04-24T07:35:13.265Z,63.30
2018-04-24T07:37:40.249Z,63.40
2018-04-24T07:40:08.082Z,63.40
2018-04-24T07:42:35.078Z,63.20
2018-04-24T07:45:02.066Z,63.20
2018-04-24T07:47:29.056Z,63.30
2018-04-24T07:49:56.805Z,63.20
2018-04-24T07:52:24.648Z,63.20
2018-04-24T07:54:51.633Z,63.20
2018-04-24T07:57:18.630Z,63.20
2018-04-24T07:59:45.623Z,63.20
2018-04-24T08:02:13.445Z,63.20
2018-04-24T08:04:40.434Z,63.10
2018-04-24T08:07:08.187Z,63.10
2018-04-24T08:09:35.942Z,63.10
2018-04-24T08:12:02.962Z,63.10
2018-04-24T08:14:29.955Z,63.00
2018-04-24T08:16:57.709Z,63.10
2018-04-24T08:19:25.542Z,63.10
2018-04-24T08:21:52.530Z,63.10
2018-04-24T08:24:19.538Z,63.10
2018-04-24T08:26:46.535Z,63.10
2018-04-24T08:29:13.513Z,63.00
2018-04-24T08:31:40.501Z,63.90
2018-04-24T08:34:08.565Z,63.00
2018-04-24T08:36:35.566Z,62.90
2018-04-24T08:39:02.628Z,63.00
2018-04-24T08:41:29.558Z,63.00
2018-04-24T08:43:56.547Z,63.00
2018-04-24T08:46:24.306Z,63.70
2018-04-24T08:48:51.299Z,62.90
2018-04-24T08:51:18.298Z,62.80
2018-04-24T08:53:45.286Z,62.80
2018-04-24T08:56:12.275Z,62.90
2018-04-24T08:58:39.291Z,62.90
2018-04-24T09:01:06.274Z,62.90
2018-04-24T09:03:33.262Z,62.90
2018-04-24T09:06:00.259Z,62.90
2018-04-24T09:08:27.297Z,62.90
2018-04-24T09:10:54.247Z,62.90
2018-04-24T09:13:21.235Z,62.80
2018-04-24T09:15:49.059Z,62.90
2018-04-24T09:18:16.054Z,62.80
2018-04-24T09:20:43.042Z,62.80
2018-04-24T09:23:10.197Z,62.80
2018-04-24T09:25:38.038Z,62.80
2018-04-24T09:28:05.022Z,62.80
2018-04-24T09:30:32.010Z,62.80
2018-04-24T09:32:58.992Z,62.80
2018-04-24T09:35:27.851Z,62.80
2018-04-24T09:37:54.844Z,62.80
2018-04-24T09:40:21.833Z,62.80
2018-04-24T09:42:48.824Z,62.70
2018-04-24T09:45:15.819Z,63.50
2018-04-24T09:47:42.837Z,62.70
2018-04-24T09:50:09.827Z,62.70
2018-04-24T09:52:36.814Z,62.80
2018-04-24T09:55:03.807Z,62.70
2018-04-24T09:57:30.798Z,62.70
2018-04-24T09:59:57.785Z,62.70
2018-04-24T10:02:25.547Z,62.70
2018-04-24T10:04:53.313Z,62.80
2018-04-24T10:07:20.298Z,62.70
2018-04-24T10:09:47.290Z,62.70
2018-04-24T10:12:15.059Z,62.80
2018-04-24T10:14:42.912Z,62.70
2018-04-24T10:17:09.896Z,62.70
2018-04-24T10:19:36.883Z,62.70
2018-04-24T10:22:03.873Z,62.70
2018-04-24T10:24:31.629Z,62.70
2018-04-24T10:26:58.618Z,62.70
2018-04-24T10:29:25.627Z,62.80
2018-04-24T10:31:52.618Z,62.70
2018-04-24T10:34:19.619Z,62.70
2018-04-24T10:36:47.370Z,62.70
2018-04-24T10:39:15.134Z,62.80
2018-04-24T10:41:42.885Z,62.80
2018-04-24T10:44:09.873Z,62.70
2018-04-24T10:46:36.870Z,62.70
2018-04-24T10:49:03.874Z,62.80
2018-04-24T10:51:30.895Z,62.70
2018-04-24T10:53:58.641Z,62.70
2018-04-24T10:56:25.634Z,62.70
2018-04-24T10:58:52.659Z,62.80
2018-04-24T11:01:19.643Z,62.70
2018-04-24T11:03:46.667Z,62.70
2018-04-24T11:06:13.661Z,62.70
2018-04-24T11:08:40.686Z,62.70
2018-04-24T11:11:07.679Z,62.70
2018-04-24T11:13:34.669Z,62.70
2018-04-24T11:16:01.662Z,62.70
2018-04-24T11:18:29.430Z,62.80
2018-04-24T11:20:56.422Z,62.70
2018-04-24T11:23:23.415Z,62.70
2018-04-24T11:25:50.407Z,62.70
2018-04-24T11:28:17.408Z,62.70
2018-04-24T11:30:45.163Z,62.70
2018-04-24T11:33:12.940Z,62.80
2018-04-24T11:35:39.935Z,62.70
2018-04-24T11:38:06.930Z,62.70
2018-04-24T11:40:34.728Z,62.80
2018-04-24T11:43:01.733Z,62.70
2018-04-24T11:45:28.733Z,62.70
2018-04-24T11:47:55.721Z,62.70
2018-04-24T11:50:23.484Z,62.80
2018-04-24T11:52:51.239Z,62.80
2018-04-24T11:55:18.221Z,62.70
2018-04-24T11:57:45.213Z,63.50
2018-04-24T12:00:12.202Z,62.80
2018-04-24T12:02:39.283Z,63.40
2018-04-24T12:05:06.185Z,62.70
2018-04-24T12:07:33.186Z,62.70
2018-04-24T12:10:00.269Z,62.70
2018-04-24T12:12:27.977Z,62.70
2018-04-24T12:14:54.961Z,62.50
2018-04-24T12:17:21.994Z,62.60
2018-04-24T12:19:48.982Z,62.60
2018-04-24T12:22:16.738Z,62.60
2018-04-24T12:24:44.488Z,62.60
2018-04-24T12:27:12.239Z,62.50
2018-04-24T12:29:39.230Z,62.50
2018-04-24T12:32:06.221Z,62.50
2018-04-24T12:34:33.214Z,62.50
2018-04-24T12:37:00.202Z,62.40
2018-04-24T12:39:27.200Z,62.40
2018-04-24T12:41:54.958Z,62.40
2018-04-24T12:44:22.797Z,62.40
2018-04-24T12:46:49.782Z,62.30
2018-04-24T12:49:16.783Z,62.30
2018-04-24T12:51:43.775Z,62.30
2018-04-24T12:54:10.757Z,62.30
2018-04-24T12:56:37.756Z,62.30
2018-04-24T12:59:05.609Z,62.20
2018-04-24T13:01:33.265Z,62.20
2018-04-24T13:04:00.258Z,62.20
2018-04-24T13:06:27.344Z,62.20
2018-04-24T13:08:54.364Z,62.20
2018-04-24T13:11:21.358Z,62.20
2018-04-24T13:13:49.114Z,62.10
2018-04-24T13:16:16.101Z,62.10
2018-04-24T13:18:43.105Z,62.10
2018-04-24T13:21:10.112Z,62.30
2018-04-24T13:23:37.181Z,62.10
2018-04-24T13:26:04.224Z,62.20
2018-04-24T13:28:31.914Z,62.20
2018-04-24T13:30:58.903Z,62.20
2018-04-24T13:33:25.978Z,62.00
2018-04-24T13:35:52.965Z,62.10
2018-04-24T13:38:20.753Z,62.10
2018-04-24T13:40:47.897Z,61.90
2018-04-24T13:43:14.907Z,62.10
2018-04-24T13:45:41.898Z,62.10
2018-04-24T13:48:08.885Z,62.10
2018-04-24T13:50:35.877Z,62.10
2018-04-24T13:53:02.986Z,62.00
2018-04-24T13:55:30.037Z,62.80
2018-04-24T13:57:56.972Z,62.00
2018-04-24T14:00:24.055Z,62.00
2018-04-24T14:02:51.874Z,61.90
2018-04-24T14:05:18.925Z,61.90
2018-04-24T14:07:45.916Z,61.90
2018-04-24T14:10:13.707Z,61.90
2018-04-24T14:12:40.698Z,61.90
2018-04-24T14:15:07.704Z,61.80
2018-04-24T14:17:34.697Z,62.70
2018-04-24T14:20:01.677Z,61.80
2018-04-24T14:22:28.681Z,61.90
2018-04-24T14:24:56.437Z,61.90
2018-04-24T14:27:23.462Z,61.80
2018-04-24T14:29:50.518Z,61.80
2018-04-24T14:32:17.538Z,61.80
2018-04-24T14:37:23.999Z,61.40
2018-04-24T14:39:51.021Z,61.40
2018-04-24T14:42:21.916Z,61.40
2018-04-24T14:44:48.906Z,61.50
2018-04-24T14:47:16.661Z,60.70
2018-04-24T14:49:43.653Z,60.60
2018-04-24T14:52:10.647Z,60.90
2018-04-24T14:54:37.684Z,61.10
2018-04-24T14:57:04.677Z,61.30
2018-04-24T14:59:31.667Z,61.30
2018-04-24T15:01:58.671Z,61.20
2018-04-24T15:04:25.669Z,61.20
2018-04-24T15:06:52.669Z,61.30
2018-04-24T15:09:19.668Z,61.60
2018-04-24T15:11:46.665Z,62.50
2018-04-24T15:14:13.747Z,60.90
2018-04-24T15:16:40.755Z,61.40
2018-04-24T15:19:07.735Z,60.80
2018-04-24T15:21:34.742Z,61.00
2018-04-24T15:24:01.726Z,61.00
2018-04-24T15:26:28.719Z,60.90
2018-04-24T15:28:55.710Z,60.80
2018-04-24T15:31:22.718Z,61.00
2018-04-24T15:33:49.710Z,61.10
2018-04-24T15:36:16.731Z,61.10
2018-04-24T15:38:43.718Z,61.10
2018-04-24T15:41:10.730Z,61.10
2018-04-24T15:43:37.716Z,61.10
2018-04-24T15:46:05.520Z,61.20
2018-04-24T15:48:32.601Z,60.40
2018-04-24T15:50:59.590Z,60.50
2018-04-24T15:53:26.587Z,61.00
2018-04-24T15:55:53.581Z,60.60
2018-04-24T15:58:21.363Z,59.90
2018-04-24T16:00:48.359Z,59.80
2018-04-24T16:03:15.349Z,60.10
2018-04-24T16:05:42.343Z,60.40
2018-04-24T16:08:09.333Z,60.50
2018-04-24T16:10:36.321Z,60.60
2018-04-24T16:13:03.319Z,60.80
2018-04-24T16:15:30.313Z,61.20
2018-04-24T16:17:57.302Z,61.20
2018-04-24T16:20:25.133Z,61.30
2018-04-24T16:22:52.117Z,61.20
2018-04-24T16:25:19.874Z,61.40
2018-04-24T16:27:47.635Z,61.30
2018-04-24T16:30:15.394Z,61.10
2018-04-24T16:32:43.149Z,61.20
2018-04-24T16:35:10.173Z,61.10
2018-04-24T16:37:37.158Z,61.30
2018-04-24T16:40:04.167Z,61.10
2018-04-24T16:42:31.153Z,61.10
2018-04-24T16:44:58.914Z,61.20
2018-04-24T16:47:26.682Z,61.10
2018-04-24T16:49:54.438Z,61.10
2018-04-24T16:52:22.270Z,61.10
2018-04-24T16:54:49.266Z,61.10
2018-04-24T16:57:16.254Z,61.10
2018-04-24T16:59:43.310Z,61.10
2018-04-24T17:02:10.317Z,61.10
2018-04-24T17:04:37.316Z,61.10
2018-04-24T17:07:04.323Z,61.10
2018-04-24T17:09:31.309Z,61.10
2018-04-24T17:11:58.307Z,61.10
2018-04-24T17:14:25.333Z,61.20
2018-04-24T17:16:53.154Z,59.30
2018-04-24T17:19:20.153Z,59.10
2018-04-24T17:21:47.146Z,59.40
2018-04-24T17:24:14.138Z,58.70
2018-04-24T17:26:41.235Z,59.30
2018-04-24T17:29:08.234Z,59.70
2018-04-24T17:31:35.221Z,60.00
2018-04-24T17:34:02.219Z,60.20
2018-04-24T17:36:29.205Z,58.20
2018-04-24T17:38:56.190Z,57.40
2018-04-24T17:41:23.942Z,58.50
2018-04-24T17:43:50.996Z,58.50
2018-04-24T17:46:18.030Z,59.30
2018-04-24T17:48:45.021Z,59.40
2018-04-24T17:51:12.011Z,58.90
2018-04-24T17:53:39.016Z,58.90
2018-04-24T17:56:06.081Z,59.20
2018-04-24T17:58:33.083Z,59.60
2018-04-24T18:01:00.924Z,60.00
2018-04-24T18:03:27.921Z,60.00
2018-04-24T18:05:54.914Z,59.80
2018-04-24T18:08:21.915Z,58.70
2018-04-24T18:10:48.922Z,58.50
2018-04-24T18:13:15.930Z,58.80
2018-04-24T18:15:42.923Z,59.50
2018-04-24T18:18:10.691Z,59.70
2018-04-24T18:20:38.457Z,59.90
2018-04-24T18:23:06.222Z,60.10
2018-04-24T18:25:33.989Z,60.10
2018-04-24T18:28:01.071Z,60.10
2018-04-24T18:30:28.142Z,60.10
2018-04-24T18:32:55.194Z,60.10
2018-04-24T18:35:22.206Z,60.10
2018-04-24T18:37:49.205Z,60.20
2018-04-24T18:40:17.075Z,60.30
2018-04-24T18:42:44.087Z,60.30
2018-04-24T18:45:11.087Z,60.30
2018-04-24T18:47:38.083Z,60.30
2018-04-24T18:50:05.076Z,60.30
2018-04-24T18:52:32.122Z,60.40
2018-04-24T18:54:59.133Z,60.40
2018-04-24T18:57:26.923Z,60.50
2018-04-24T18:59:54.695Z,60.50
2018-04-24T19:02:21.699Z,60.40
2018-04-24T19:04:48.731Z,60.50
2018-04-24T19:07:15.743Z,60.50
2018-04-24T19:09:42.739Z,60.50
2018-04-24T19:12:09.747Z,60.50
2018-04-24T19:14:36.949Z,60.50
2018-04-24T19:17:04.715Z,60.60
2018-04-24T19:19:32.472Z,60.60
2018-04-24T19:22:00.238Z,60.60
2018-04-24T19:24:33.863Z,60.70
2018-04-24T19:27:00.976Z,60.60
2018-04-24T19:29:27.971Z,60.60
2018-04-24T19:32:00.854Z,60.70
2018-04-24T19:34:27.852Z,60.70
2018-04-24T19:36:56.361Z,60.80
2018-04-24T19:39:30.022Z,60.80
2018-04-24T19:41:57.015Z,60.80
2018-04-24T19:44:24.007Z,60.80
2018-04-24T19:46:51.003Z,60.80
2018-04-24T19:49:24.663Z,60.80
2018-04-24T19:51:51.638Z,60.80
2018-04-24T19:54:19.417Z,60.90
2018-04-24T19:56:47.243Z,61.70
2018-04-24T19:59:14.240Z,60.90
2018-04-24T20:01:41.253Z,60.90
2018-04-24T20:04:08.247Z,61.00
2018-04-24T20:06:35.237Z,60.90
2018-04-24T20:09:02.269Z,61.00
2018-04-24T20:11:29.263Z,61.00
2018-04-24T20:13:56.252Z,61.00
2018-04-24T20:16:23.245Z,60.90
2018-04-24T20:18:51.005Z,61.00
2018-04-24T20:21:18.754Z,61.00
2018-04-24T20:23:46.531Z,61.10
2018-04-24T20:26:14.292Z,61.00
2018-04-24T20:28:42.064Z,61.10
2018-04-24T20:31:09.822Z,61.10
2018-04-24T20:34:52.511Z,60.90
2018-04-24T20:37:19.505Z,61.10
2018-04-24T20:39:46.594Z,61.10
2018-04-24T20:42:13.643Z,61.10
2018-04-24T20:44:40.632Z,61.10
2018-04-24T20:47:07.621Z,61.10
2018-04-24T20:49:34.656Z,61.00
2018-04-24T20:52:01.650Z,61.10
2018-04-24T20:54:29.423Z,61.90
2018-04-24T20:56:57.178Z,61.10
2018-04-24T20:59:24.941Z,61.10
2018-04-24T21:01:51.925Z,61.00
2018-04-24T21:04:18.930Z,61.20
2018-04-24T21:06:45.913Z,61.00
2018-04-24T21:09:12.914Z,61.10
2018-04-24T21:11:39.901Z,61.10
2018-04-24T21:14:06.993Z,61.10
2018-04-24T21:16:33.982Z,61.20
2018-04-24T21:19:00.994Z,61.10
2018-04-24T21:21:27.987Z,61.10
2018-04-24T21:23:54.979Z,61.20
2018-04-24T21:26:22.032Z,61.20
2018-04-24T21:28:49.015Z,61.20
2018-04-24T21:31:16.005Z,61.20
2018-04-24T21:33:43.003Z,61.20
2018-04-24T21:36:10.755Z,61.20
2018-04-24T21:38:38.507Z,61.20
2018-04-24T21:41:06.265Z,61.30
2018-04-24T21:43:33.252Z,61.20
2018-04-24T21:46:00.245Z,61.20
2018-04-24T21:48:27.229Z,61.20
2018-04-24T21:50:54.330Z,61.20
2018-04-24T21:53:21.317Z,61.30
2018-04-24T21:55:49.091Z,61.30
2018-04-24T21:58:16.078Z,61.20
2018-04-24T22:00:43.136Z,61.30
2018-04-24T22:03:10.127Z,61.30
2018-04-24T22:05:37.122Z,61.30
2018-04-24T22:08:04.118Z,61.30
2018-04-24T22:10:31.118Z,61.30
2018-04-24T22:12:58.152Z,61.30
2018-04-24T22:15:25.185Z,61.30
2018-04-24T22:17:52.281Z,61.30
2018-04-24T22:20:20.127Z,61.30
2018-04-24T22:22:47.110Z,61.30
2018-04-24T22:25:14.101Z,61.30
2018-04-24T22:27:41.094Z,61.30
2018-04-24T22:30:08.851Z,61.30
2018-04-24T22:32:36.605Z,61.30
2018-04-24T22:35:03.590Z,61.30
2018-04-24T22:37:30.678Z,61.30
2018-04-24T22:39:57.670Z,61.30
2018-04-24T22:42:24.658Z,61.30
2018-04-24T22:44:51.642Z,61.20
2018-04-24T22:47:19.401Z,61.30
2018-04-24T22:49:47.281Z,61.90
2018-04-24T22:52:14.230Z,61.20
2018-04-24T22:54:41.224Z,61.20
2018-04-24T22:57:08.214Z,61.20
2018-04-24T22:59:35.974Z,61.30
2018-04-24T23:02:03.751Z,61.30
2018-04-24T23:04:31.506Z,61.20
2018-04-24T23:06:59.267Z,61.40
2018-04-24T23:09:27.031Z,61.20
2018-04-24T23:12:00.761Z,61.40
2018-04-24T23:14:33.782Z,61.20
2018-04-24T23:17:06.617Z,61.20
2018-04-24T23:19:39.498Z,61.20
2018-04-24T23:22:07.018Z,61.30
2018-04-24T23:24:34.029Z,61.20
2018-04-24T23:27:01.008Z,61.30
2018-04-24T23:29:27.994Z,61.30
2018-04-24T23:31:54.998Z,61.30
2018-04-24T23:34:21.982Z,61.30
2018-04-24T23:36:48.971Z,61.30
2018-04-24T23:39:15.956Z,62.10
2018-04-24T23:41:43.706Z,62.20
2018-04-24T23:44:10.699Z,61.30
2018-04-24T23:46:37.689Z,61.40
2018-04-24T23:49:04.678Z,61.40
2018-04-24T23:51:31.662Z,61.40
2018-04-24T23:53:58.649Z,61.40
2018-04-24T23:56:26.415Z,61.50
2018-04-24T23:58:54.173Z,61.50
